Time;durP1;ratioP1;P1;durP2;ratioP2;P2;SDS_P1;SDS_P2;PMS_P1;PMS_P2;Temp;Humidity;BMP_temperature;BMP_pressure;BME280_temperature;BME280_humidity;BME280_pressure;Samples;Min_cycle;Max_cycle;Signal;HPM_P1;HPM_P2
2021/08/01 00:00:48;;;;;;;21.37;9.33;;;;;;;14.63;97.90;100246.25;5050162;28;20107;-74
2021/08/01 00:03:13;;;;;;;15.90;8.10;;;;;;;14.63;97.23;100246.25;5050230;28;20029;-74
2021/08/01 00:05:39;;;;;;;21.40;8.23;;;;;;;14.59;96.90;100259.25;5049934;28;20025;-73
2021/08/01 00:08:04;;;;;;;18.83;8.47;;;;;;;14.51;97.08;100248.63;5050037;28;20374;-73
2021/08/01 00:10:30;;;;;;;24.35;8.88;;;;;;;14.53;97.73;100241.22;5050035;28;20174;-73
2021/08/01 00:12:56;;;;;;;22.10;8.73;;;;;;;14.51;97.77;100246.78;5032539;28;20031;-73
2021/08/01 00:15:22;;;;;;;11.80;7.90;;;;;;;14.42;97.73;100244.47;5049951;28;20036;-73
2021/08/01 00:17:47;;;;;;;17.52;7.70;;;;;;;14.50;97.84;100238.94;5049622;28;20044;-73
2021/08/01 00:20:13;;;;;;;14.90;7.00;;;;;;;14.48;98.07;100238.31;5049892;28;20040;-74
2021/08/01 00:22:38;;;;;;;12.83;7.27;;;;;;;14.50;98.16;100234.38;5048780;28;20045;-74
2021/08/01 00:25:04;;;;;;;10.97;7.67;;;;;;;14.51;97.74;100238.72;5048950;28;20307;-73
2021/08/01 00:27:33;;;;;;;17.35;7.22;;;;;;;14.56;97.64;100235.47;5048602;28;20374;-74
2021/08/01 00:29:59;;;;;;;17.30;7.90;;;;;;;14.59;98.11;100239.63;5032471;28;20074;-73
2021/08/01 00:32:25;;;;;;;17.30;8.43;;;;;;;14.55;97.76;100239.19;5032215;28;20417;-74
2021/08/01 00:34:50;;;;;;;16.97;7.53;;;;;;;14.57;97.71;100229.91;5048779;28;20029;-74
2021/08/01 00:37:15;;;;;;;16.43;7.30;;;;;;;14.57;98.47;100235.28;5048541;28;20059;-74
2021/08/01 00:39:41;;;;;;;15.07;7.40;;;;;;;14.57;98.12;100232.59;5050031;28;20048;-74
2021/08/01 00:42:07;;;;;;;22.03;8.03;;;;;;;14.63;98.36;100236.31;5048714;28;20580;-74
2021/08/01 00:44:32;;;;;;;20.10;8.50;;;;;;;14.61;98.13;100224.97;5048777;28;20458;-74
2021/08/01 00:46:58;;;;;;;18.17;8.35;;;;;;;14.53;97.73;100220.53;5048535;28;20462;-74
2021/08/01 00:49:24;;;;;;;13.73;7.10;;;;;;;14.57;97.67;100229.06;5049784;28;20032;-74
2021/08/01 00:51:49;;;;;;;19.33;10.50;;;;;;;14.53;98.04;100220.53;5048621;28;20052;-74
2021/08/01 00:54:15;;;;;;;17.00;11.07;;;;;;;14.54;98.16;100230.31;5049481;28;20047;-73
2021/08/01 00:56:41;;;;;;;;;;;;;;;14.59;98.23;100226.19;5050936;28;20035;-73
2021/08/01 00:59:06;;;;;;;;;;;;;;;14.54;98.45;100226.81;5054039;28;19916;-74
2021/08/01 01:01:57;;;;;;;18.13;9.23;;;;;;;14.50;98.03;100225.50;5052782;28;19974;-73
2021/08/01 01:04:33;;;;;;;20.92;8.65;;;;;;;14.44;97.57;100220.94;5053219;28;20033;-74
2021/08/01 01:07:16;;;;;;;12.77;7.30;;;;;;;14.47;97.95;100221.38;5052403;28;20616;-73
2021/08/01 01:09:56;;;;;;;19.50;9.32;;;;;;;14.61;98.12;100227.66;5053455;28;20029;-73
2021/08/01 01:12:44;;;;;;;17.95;8.32;;;;;;;14.61;97.86;100222.28;5052482;28;20599;-74
2021/08/01 01:15:15;;;;;;;20.25;9.32;;;;;;;14.59;98.04;100232.41;5052150;28;20454;-73
2021/08/01 01:17:46;;;;;;;13.27;8.00;;;;;;;14.57;98.16;100221.84;5053137;28;20041;-74
2021/08/01 01:20:32;;;;;;;18.92;9.82;;;;;;;14.60;98.17;100227.84;5053032;28;20465;-73
2021/08/01 01:23:16;;;;;;;;;;;;;;;14.53;98.29;100227.78;5052430;28;20076;-73
2021/08/01 01:26:09;;;;;;;22.60;8.93;;;;;;;14.60;97.99;100225.16;5052359;28;19919;-73
2021/08/01 01:28:44;;;;;;;22.50;10.10;;;;;;;14.58;97.99;100225.34;5051932;28;20060;-74
2021/08/01 01:31:16;;;;;;;20.95;9.70;;;;;;;14.64;98.31;100227.25;5052124;28;20060;-73
2021/08/01 01:34:20;;;;;;;22.80;9.95;;;;;;;14.63;98.50;100230.13;5052889;28;20025;-73
2021/08/01 01:36:48;;;;;;;26.13;11.13;;;;;;;14.61;98.40;100232.16;5051806;28;20491;-73
2021/08/01 01:39:16;;;;;;;25.52;9.77;;;;;;;14.55;98.70;100223.06;5051867;28;20123;-73
2021/08/01 01:42:00;;;;;;;21.50;11.02;;;;;;;14.57;99.18;100229.06;5037531;28;20063;-73
2021/08/01 01:44:38;;;;;;;20.88;10.23;;;;;;;14.55;99.60;100209.66;5051880;28;20025;-73
2021/08/01 01:47:05;;;;;;;23.80;11.27;;;;;;;14.47;99.31;100205.25;5048575;28;20123;-73
2021/08/01 01:49:32;;;;;;;21.63;11.65;;;;;;;14.46;99.49;100208.94;5051323;28;20029;-73
2021/08/01 01:51:59;;;;;;;25.83;11.05;;;;;;;14.51;99.61;100206.50;5051451;28;20036;-73
2021/08/01 01:54:26;;;;;;;23.65;11.20;;;;;;;14.50;100.00;100214.75;5048793;28;20071;-73
2021/08/01 01:56:52;;;;;;;21.73;11.38;;;;;;;14.52;100.00;100208.16;5051195;28;20025;-73
2021/08/01 01:59:18;;;;;;;20.80;10.67;;;;;;;14.56;99.79;100200.53;5052660;28;20081;-73
2021/08/01 02:01:43;;;;;;;29.52;11.35;;;;;;;14.60;100.00;100201.81;5051643;28;20037;-74
2021/08/01 02:04:09;;;;;;;25.20;12.83;;;;;;;14.55;99.99;100201.59;5034810;28;20044;-73
2021/08/01 02:06:53;;;;;;;25.75;11.50;;;;;;;14.58;100.00;100201.16;5051272;28;20136;-73
2021/08/01 02:10:16;;;;;;;25.30;12.05;;;;;;;14.62;100.00;100199.75;5051769;28;20458;-73
2021/08/01 02:12:50;;;;;;;25.25;10.00;;;;;;;14.60;100.00;100198.28;5030149;28;20479;-73
2021/08/01 02:15:34;;;;;;;20.13;11.65;;;;;;;14.69;100.00;100200.59;5050548;28;20041;-73
2021/08/01 02:18:05;;;;;;;15.73;9.68;;;;;;;14.75;100.00;100205.16;5051968;28;20036;-73
2021/08/01 02:20:45;;;;;;;18.08;9.77;;;;;;;14.64;100.00;100203.06;5051141;28;20039;-74
2021/08/01 02:23:21;;;;;;;18.38;10.05;;;;;;;14.55;100.00;100207.78;5051036;28;20055;-74
2021/08/01 02:25:48;;;;;;;21.08;9.82;;;;;;;14.48;100.00;100208.75;5051769;28;20178;-74
2021/08/01 02:28:16;;;;;;;19.63;8.82;;;;;;;14.55;100.00;100212.31;5050890;28;20037;-73
2021/08/01 02:30:44;;;;;;;18.20;8.45;;;;;;;14.58;100.00;100211.91;5050845;28;20538;-74
2021/08/01 02:33:10;;;;;;;17.75;8.43;;;;;;;14.50;100.00;100214.75;5034069;28;20094;-74
2021/08/01 02:35:37;;;;;;;17.40;8.75;;;;;;;14.52;99.97;100208.16;5051888;28;20071;-73
2021/08/01 02:38:04;;;;;;;15.45;8.30;;;;;;;14.51;100.00;100216.41;5051577;28;20036;-73
2021/08/01 02:40:34;;;;;;;15.73;8.07;;;;;;;14.54;100.00;100205.31;5051889;28;20075;-74
2021/08/01 02:43:03;;;;;;;16.08;7.68;;;;;;;14.55;100.00;100206.97;5050415;28;20029;-74
2021/08/01 02:45:30;;;;;;;15.65;7.45;;;;;;;14.54;100.00;100199.94;5050417;28;20060;-73
2021/08/01 02:47:58;;;;;;;14.25;6.65;;;;;;;14.56;100.00;100214.81;5051219;28;20033;-74
2021/08/01 02:50:26;;;;;;;21.55;6.60;;;;;;;14.63;100.00;100211.31;5051715;28;20033;-73
2021/08/01 02:52:58;;;;;;;14.45;5.97;;;;;;;14.58;100.00;100217.28;5051288;28;20446;-74
2021/08/01 02:55:27;;;;;;;11.35;6.45;;;;;;;14.61;100.00;100219.59;5050387;28;20051;-74
2021/08/01 02:57:53;;;;;;;11.10;7.00;;;;;;;14.66;100.00;100216.31;5050975;28;20364;-74
2021/08/01 03:00:19;;;;;;;15.63;6.47;;;;;;;14.65;100.00;100214.63;5050560;28;20087;-74
2021/08/01 03:02:50;;;;;;;13.20;6.80;;;;;;;14.53;100.00;100214.34;5033490;28;20427;-74
2021/08/01 03:05:19;;;;;;;10.40;5.18;;;;;;;14.47;99.57;100226.75;5051290;28;20132;-74
2021/08/01 03:07:45;;;;;;;7.78;4.80;;;;;;;14.36;98.82;100219.25;5049935;28;20052;-73
2021/08/01 03:10:14;;;;;;;9.10;5.40;;;;;;;14.20;98.65;100222.28;5033543;28;20035;-74
2021/08/01 03:12:43;;;;;;;9.10;5.13;;;;;;;14.14;98.23;100221.19;5033781;28;20335;-74
2021/08/01 03:15:09;;;;;;;6.78;3.47;;;;;;;14.02;98.29;100228.16;5049940;28;20696;-74
2021/08/01 03:17:37;;;;;;;5.95;3.53;;;;;;;13.86;97.73;100222.09;5050002;28;20402;-74
2021/08/01 03:20:04;;;;;;;8.23;3.58;;;;;;;13.72;97.47;100209.63;5050153;28;20080;-74
2021/08/01 03:22:31;;;;;;;7.05;3.42;;;;;;;13.84;97.52;100212.59;5050047;28;20075;-74
2021/08/01 03:24:57;;;;;;;7.80;3.27;;;;;;;13.86;97.19;100208.69;5049623;28;20524;-74
2021/08/01 03:27:22;;;;;;;10.35;3.38;;;;;;;13.86;97.64;100206.00;5049876;28;20049;-74
2021/08/01 03:29:48;;;;;;;6.68;3.28;;;;;;;13.88;97.62;100206.63;5050678;28;20029;-74
2021/08/01 03:32:20;;;;;;;9.48;3.08;;;;;;;13.80;97.65;100204.09;5049847;28;20413;-74
2021/08/01 03:34:50;;;;;;;4.90;3.60;;;;;;;13.84;97.53;100209.91;5050580;28;20045;-74
2021/08/01 03:37:19;;;;;;;8.52;3.35;;;;;;;13.77;97.27;100217.09;5050370;28;20033;-74
2021/08/01 03:40:10;;;;;;;5.88;3.10;;;;;;;13.85;97.84;100224.97;5049789;28;20139;-74
2021/08/01 03:42:36;;;;;;;7.20;3.22;;;;;;;13.86;97.44;100223.91;5049608;28;20029;-74
2021/08/01 03:45:02;;;;;;;6.07;3.17;;;;;;;13.88;97.41;100228.09;5049331;28;20043;-74
2021/08/01 03:47:27;;;;;;;7.10;3.20;;;;;;;13.85;97.35;100231.16;5049541;28;20044;-74
2021/08/01 03:49:53;;;;;;;7.03;3.10;;;;;;;13.92;97.69;100234.69;5049385;28;20033;-74
2021/08/01 03:52:18;;;;;;;8.40;2.90;;;;;;;13.91;97.58;100238.44;5049690;28;20029;-74
2021/08/01 03:54:45;;;;;;;7.40;2.70;;;;;;;13.91;97.65;100243.78;5049305;28;20128;-74
2021/08/01 03:57:13;;;;;;;8.48;3.08;;;;;;;14.01;97.22;100247.97;5050295;28;20736;-74
2021/08/01 03:59:38;;;;;;;7.57;3.28;;;;;;;13.97;96.91;100249.41;5050596;28;20111;-74
2021/08/01 04:02:04;;;;;;;9.23;3.37;;;;;;;14.05;96.84;100249.25;5050240;28;20112;-74
2021/08/01 04:04:29;;;;;;;6.37;3.23;;;;;;;14.02;96.64;100244.25;5049190;28;20428;-74
2021/08/01 04:06:55;;;;;;;8.97;3.70;;;;;;;14.09;96.40;100242.44;5049152;28;20272;-74
2021/08/01 04:09:20;;;;;;;7.23;2.90;;;;;;;14.09;96.48;100245.13;5049515;28;20067;-74
2021/08/01 04:11:46;;;;;;;4.80;3.03;;;;;;;14.04;96.35;100244.91;5049138;28;20374;-73
2021/08/01 04:14:11;;;;;;;9.43;3.97;;;;;;;14.07;95.98;100250.72;5050037;28;20021;-74
2021/08/01 04:16:37;;;;;;;9.82;3.50;;;;;;;14.13;96.29;100247.22;5048819;28;20033;-74
2021/08/01 04:19:13;;;;;;;8.80;3.63;;;;;;;14.18;96.97;100252.00;5032589;28;20559;-74
2021/08/01 04:21:40;;;;;;;11.20;3.97;;;;;;;14.15;96.52;100255.09;5049923;28;20733;-74
2021/08/01 04:24:05;;;;;;;7.28;3.72;;;;;;;14.18;96.40;100264.59;5050021;28;20033;-73
2021/08/01 04:26:31;;;;;;;8.27;3.67;;;;;;;14.24;96.44;100267.31;5048817;28;20469;-73
2021/08/01 04:28:57;;;;;;;6.80;3.38;;;;;;;14.14;94.66;100274.88;5050155;28;20032;-74
2021/08/01 04:31:23;;;;;;;7.47;3.85;;;;;;;14.18;94.50;100281.53;5048197;28;20045;-73
2021/08/01 04:33:48;;;;;;;12.32;3.78;;;;;;;14.10;94.14;100263.72;5050044;28;20374;-74
2021/08/01 04:36:14;;;;;;;11.47;4.77;;;;;;;14.20;94.68;100284.03;5049777;28;20375;-73
2021/08/01 04:38:39;;;;;;;7.37;4.33;;;;;;;14.21;95.56;100274.94;5050060;28;20029;-74
2021/08/01 04:41:04;;;;;;;10.80;3.97;;;;;;;14.22;96.27;100271.22;5050089;28;20067;-73
2021/08/01 04:43:30;;;;;;;12.37;4.00;;;;;;;14.22;95.85;100272.06;5049556;28;20056;-74
2021/08/01 04:45:55;;;;;;;10.33;5.33;;;;;;;14.27;96.58;100266.09;5049660;28;20032;-74
2021/08/01 04:48:21;;;;;;;7.33;3.63;;;;;;;14.24;96.12;100264.63;5049606;28;20066;-73
2021/08/01 04:50:46;;;;;;;7.13;4.23;;;;;;;14.38;96.70;100270.09;5049240;28;20048;-73
2021/08/01 04:53:11;;;;;;;9.20;4.23;;;;;;;14.27;96.08;100263.41;5049657;28;20638;-73
2021/08/01 04:55:37;;;;;;;9.17;3.83;;;;;;;14.31;95.35;100270.88;5049001;28;20453;-73
2021/08/01 04:58:03;;;;;;;13.23;4.43;;;;;;;14.36;95.35;100265.72;5048608;28;20024;-73
2021/08/01 05:00:29;;;;;;;;;;;;;;;14.41;95.54;100273.19;5050424;28;20032;-73
2021/08/01 05:02:54;;;;;;;;;;;;;;;14.32;94.69;100277.88;5048817;28;19947;-73
2021/08/01 05:05:19;;;;;;;6.87;3.70;;;;;;;14.35;94.23;100277.50;5048924;28;19909;-73
2021/08/01 05:07:45;;;;;;;10.37;3.83;;;;;;;14.50;94.74;100281.91;5031918;28;20037;-73
2021/08/01 05:10:10;;;;;;;9.57;3.83;;;;;;;14.39;93.62;100275.25;5049916;28;20032;-73
2021/08/01 05:12:36;;;;;;;9.63;4.97;;;;;;;14.36;94.29;100273.78;5032111;28;20056;-72
2021/08/01 05:15:04;;;;;;;9.97;4.63;;;;;;;14.47;94.30;100268.88;5031858;28;20052;-72
2021/08/01 05:17:30;;;;;;;13.02;3.90;;;;;;;14.40;93.40;100278.75;5049384;28;20076;-72
2021/08/01 05:19:55;;;;;;;10.02;4.32;;;;;;;14.55;93.59;100287.53;5031866;28;20060;-72
2021/08/01 05:22:21;;;;;;;7.00;3.50;;;;;;;14.68;94.89;100282.22;5048636;28;20033;-72
2021/08/01 05:24:46;;;;;;;8.07;3.97;;;;;;;14.75;94.83;100283.09;5048393;28;20534;-72
2021/08/01 05:27:12;;;;;;;10.00;4.43;;;;;;;14.64;94.37;100282.84;5049243;28;20033;-73
2021/08/01 05:29:37;;;;;;;12.23;4.67;;;;;;;14.84;94.32;100280.22;5032018;28;20029;-72
2021/08/01 05:32:04;;;;;;;6.37;4.10;;;;;;;14.82;93.25;100266.13;5048308;28;20033;-73
2021/08/01 05:34:30;;;;;;;12.73;4.82;;;;;;;14.94;92.99;100267.22;5048269;28;20040;-74
2021/08/01 05:36:56;;;;;;;;;;;;;;;15.00;91.54;100274.47;5049880;28;20021;-73
2021/08/01 05:39:21;;;;;;;;;;;;;;;15.03;91.35;100292.06;5049743;28;20416;-73
2021/08/01 05:41:46;;;;;;;11.40;4.03;;;;;;;14.93;91.60;100292.44;5047850;28;20365;-73
2021/08/01 05:44:12;;;;;;;10.83;4.67;;;;;;;14.89;91.61;100294.72;5052351;28;20029;-72
2021/08/01 05:46:37;;;;;;;11.87;4.07;;;;;;;14.99;91.82;100288.94;5050325;28;20045;-72
2021/08/01 05:49:02;;;;;;;5.70;3.47;;;;;;;15.21;91.39;100292.31;5050542;28;20048;-72
2021/08/01 05:51:30;;;;;;;23.33;4.53;;;;;;;15.29;91.08;100294.81;5050823;28;20037;-73
2021/08/01 05:54:14;;;;;;;10.98;3.30;;;;;;;15.40;90.04;100296.06;5051618;28;20120;-72
2021/08/01 05:56:39;;;;;;;6.20;4.17;;;;;;;15.41;89.64;100287.78;5049437;28;20028;-72
2021/08/01 05:59:05;;;;;;;10.83;4.30;;;;;;;15.42;88.70;100285.91;5050685;28;20391;-72
2021/08/01 06:01:30;;;;;;;11.63;3.50;;;;;;;15.40;88.76;100290.69;5034932;28;20033;-72
2021/08/01 06:03:55;;;;;;;7.07;3.33;;;;;;;15.46;87.84;100292.56;5071435;28;20476;-72
2021/08/01 06:06:24;;;;;;;8.67;3.53;;;;;;;15.48;87.53;100295.03;5070347;28;20036;-73
2021/08/01 06:08:56;;;;;;;8.15;4.00;;;;;;;15.53;86.78;100293.38;5054227;28;20050;-72
2021/08/01 06:11:21;;;;;;;5.30;3.40;;;;;;;15.43;88.69;100295.66;5071145;28;20043;-73
2021/08/01 06:13:47;;;;;;;11.25;3.65;;;;;;;15.43;87.56;100292.97;5072529;28;20032;-72
2021/08/01 06:16:14;;;;;;;10.35;3.20;;;;;;;15.66;86.87;100289.84;5071807;28;20029;-73
2021/08/01 06:18:41;;;;;;;9.75;4.05;;;;;;;15.55;87.28;100291.31;5072126;28;20047;-72
2021/08/01 06:21:08;;;;;;;7.07;3.63;;;;;;;15.57;87.32;100302.72;5071327;28;20052;-73
2021/08/01 06:23:35;;;;;;;11.55;3.53;;;;;;;15.79;87.84;100297.16;5054163;28;20044;-72
2021/08/01 06:26:00;;;;;;;13.27;3.72;;;;;;;15.77;86.84;100286.59;5071676;28;20040;-72
2021/08/01 06:28:25;;;;;;;5.40;3.60;;;;;;;15.67;87.36;100290.72;5071707;28;20028;-73
2021/08/01 06:30:51;;;;;;;15.80;4.07;;;;;;;15.53;86.90;100306.84;5072157;28;20374;-72
2021/08/01 06:33:16;;;;;;;12.57;4.57;;;;;;;15.59;87.70;100289.88;5070630;28;20110;-72
2021/08/01 06:35:42;;;;;;;12.03;3.70;;;;;;;15.64;87.46;100305.41;5053494;28;20060;-72
2021/08/01 06:38:07;;;;;;;11.70;3.63;;;;;;;15.89;87.12;100302.94;5071005;28;20052;-72
2021/08/01 06:40:33;;;;;;;9.50;3.77;;;;;;;15.92;87.39;100302.53;5069854;28;20029;-72
2021/08/01 06:42:58;;;;;;;9.83;4.07;;;;;;;15.75;87.65;100306.66;5068521;28;20054;-70
2021/08/01 06:45:24;;;;;;;9.00;4.17;;;;;;;16.00;88.57;100301.47;5069779;28;20032;-70
2021/08/01 06:47:49;;;;;;;10.73;3.90;;;;;;;15.87;86.98;100310.38;5052879;28;20032;-70
2021/08/01 06:50:14;;;;;;;6.50;4.20;;;;;;;16.04;88.04;100305.41;5071050;28;20052;-70
2021/08/01 06:52:40;;;;;;;10.23;4.77;;;;;;;16.18;86.72;100300.84;5070755;28;20141;-71
2021/08/01 06:55:06;;;;;;;11.43;4.57;;;;;;;16.50;85.38;100304.47;5070417;28;20047;-71
2021/08/01 06:57:32;;;;;;;8.90;3.70;;;;;;;16.88;84.18;100299.19;5071105;28;20043;-70
2021/08/01 06:59:57;;;;;;;6.40;3.63;;;;;;;16.95;83.22;100303.69;5070028;28;20044;-70
2021/08/01 07:02:22;;;;;;;8.77;3.83;;;;;;;16.91;82.72;100308.72;5071450;28;20094;-70
2021/08/01 07:04:48;;;;;;;11.00;4.33;;;;;;;17.15;82.53;100309.00;5069856;28;20032;-70
2021/08/01 07:07:13;;;;;;;8.50;4.23;;;;;;;17.08;82.75;100311.72;5070877;28;20036;-70
2021/08/01 07:09:41;;;;;;;9.03;3.67;;;;;;;16.92;82.30;100304.13;5070828;28;20127;-70
2021/08/01 07:12:08;;;;;;;10.98;3.95;;;;;;;16.92;83.46;100304.13;5070048;28;20059;-70
2021/08/01 07:14:34;;;;;;;10.77;4.32;;;;;;;17.23;82.74;100312.28;5069642;28;20017;-72
2021/08/01 07:17:01;;;;;;;7.85;4.07;;;;;;;17.63;81.47;100313.84;5069962;28;20048;-72
2021/08/01 07:19:26;;;;;;;9.27;4.43;;;;;;;17.69;81.51;100307.59;5070597;28;20086;-72
2021/08/01 07:21:52;;;;;;;11.32;4.80;;;;;;;17.70;79.96;100310.09;5069957;28;20389;-72
2021/08/01 07:24:17;;;;;;;12.00;4.70;;;;;;;17.05;80.67;100307.59;5069420;28;20433;-72
2021/08/01 07:26:42;;;;;;;9.07;4.37;;;;;;;17.02;82.41;100315.28;5069684;28;20060;-72
2021/08/01 07:29:08;;;;;;;10.33;4.90;;;;;;;16.89;82.50;100318.88;5069724;28;20059;-72
2021/08/01 07:31:33;;;;;;;11.07;5.33;;;;;;;16.88;83.31;100315.38;5070340;28;20024;-72
2021/08/01 07:34:00;;;;;;;12.90;4.83;;;;;;;16.79;82.96;100321.22;5069688;28;20048;-72
2021/08/01 07:36:26;;;;;;;8.75;4.43;;;;;;;16.84;84.08;100322.22;5068963;28;20043;-72
2021/08/01 07:38:52;;;;;;;12.48;4.93;;;;;;;16.94;83.56;100318.25;5070595;28;20125;-72
2021/08/01 07:41:17;;;;;;;9.80;4.10;;;;;;;17.50;81.68;100323.72;5070418;28;20550;-72
2021/08/01 07:43:43;;;;;;;13.27;4.47;;;;;;;17.68;79.55;100319.44;5068752;28;20124;-72
2021/08/01 07:46:08;;;;;;;7.93;3.97;;;;;;;18.14;80.09;100318.22;5068150;28;20447;-72
2021/08/01 07:48:34;;;;;;;9.93;3.77;;;;;;;18.64;78.39;100322.72;5069856;28;20055;-72
2021/08/01 07:51:00;;;;;;;13.95;4.88;;;;;;;18.67;76.92;100317.66;5069686;28;20043;-72
2021/08/01 07:53:26;;;;;;;8.20;4.05;;;;;;;18.80;73.17;100318.56;5068676;28;20453;-73
2021/08/01 07:55:52;;;;;;;11.40;4.50;;;;;;;18.86;75.00;100329.31;5069077;28;20032;-73
2021/08/01 07:58:17;;;;;;;10.23;4.27;;;;;;;19.27;73.68;100324.19;5069831;28;20119;-72
2021/08/01 08:00:42;;;;;;;8.27;3.70;;;;;;;19.38;71.82;100324.22;5070370;28;20029;-73
2021/08/01 08:03:08;;;;;;;7.80;4.07;;;;;;;18.84;74.96;100326.00;5068844;28;20040;-73
2021/08/01 08:05:33;;;;;;;14.13;4.23;;;;;;;18.99;74.47;100331.03;5069655;28;20036;-72
2021/08/01 08:07:58;;;;;;;6.10;3.77;;;;;;;19.03;72.49;100337.63;5068498;28;20339;-73
2021/08/01 08:10:24;;;;;;;8.77;4.37;;;;;;;20.16;69.15;100327.00;5052592;28;20036;-73
2021/08/01 08:12:49;;;;;;;14.73;4.40;;;;;;;20.36;66.64;100323.91;5069569;28;20032;-73
2021/08/01 08:15:16;;;;;;;7.85;4.20;;;;;;;21.17;63.93;100327.50;5069051;28;20075;-73
2021/08/01 08:17:42;;;;;;;6.70;3.95;;;;;;;21.00;62.42;100327.44;5068592;28;20394;-73
2021/08/01 08:20:08;;;;;;;8.43;4.07;;;;;;;21.58;64.29;100311.94;5068996;28;20091;-73
2021/08/01 08:22:34;;;;;;;11.13;4.20;;;;;;;21.45;64.19;100310.38;5051920;28;20056;-72
2021/08/01 08:25:00;;;;;;;6.32;3.92;;;;;;;21.75;61.37;100316.56;5052146;28;20058;-73
2021/08/01 08:27:25;;;;;;;10.90;3.97;;;;;;;21.73;60.16;100316.84;5051636;28;20533;-72
2021/08/01 08:29:51;;;;;;;12.83;4.57;;;;;;;21.99;60.96;100311.81;5069053;28;20052;-73
2021/08/01 08:32:16;;;;;;;9.70;4.28;;;;;;;21.25;63.84;100301.84;5052316;28;20024;-73
2021/08/01 08:34:42;;;;;;;7.27;4.30;;;;;;;21.05;62.82;100299.59;5068687;28;20740;-73
2021/08/01 08:37:09;;;;;;;8.77;4.03;;;;;;;21.21;61.64;100311.53;5068673;28;20297;-73
2021/08/01 08:39:35;;;;;;;10.73;5.22;;;;;;;21.20;59.91;100296.31;5069587;28;20051;-73
2021/08/01 08:42:00;;;;;;;10.60;3.83;;;;;;;21.31;61.68;100298.16;5068300;28;20048;-73
2021/08/01 08:44:27;;;;;;;9.60;4.67;;;;;;;22.03;59.71;100299.34;5051734;28;20044;-73
2021/08/01 08:46:54;;;;;;;15.18;4.78;;;;;;;21.55;61.05;100287.19;5068647;28;20039;-73
2021/08/01 08:49:21;;;;;;;8.93;4.75;;;;;;;20.80;65.26;100298.00;5051846;28;20373;-73
2021/08/01 08:51:48;;;;;;;10.05;4.53;;;;;;;19.61;66.59;100296.38;5069592;28;20420;-73
2021/08/01 08:54:16;;;;;;;6.65;3.85;;;;;;;19.53;66.75;100298.63;5069341;28;20013;-73
2021/08/01 08:56:43;;;;;;;9.10;4.55;;;;;;;19.31;67.32;100301.84;5068720;28;20028;-73
2021/08/01 08:59:10;;;;;;;8.07;4.38;;;;;;;19.03;69.42;100298.94;5068640;28;20051;-73
2021/08/01 09:01:39;;;;;;;8.80;4.22;;;;;;;18.71;69.85;100302.66;5068546;28;20450;-73
2021/08/01 09:04:05;;;;;;;8.73;3.92;;;;;;;18.45;71.50;100309.19;5069077;28;20036;-73
2021/08/01 09:06:31;;;;;;;15.73;4.88;;;;;;;18.40;71.22;100317.13;5068138;28;20432;-73
2021/08/01 09:08:56;;;;;;;9.70;5.00;;;;;;;18.28;72.87;100306.22;5068752;28;20112;-73
2021/08/01 09:11:22;;;;;;;12.65;5.38;;;;;;;17.73;75.41;100308.81;5069275;28;20037;-72
2021/08/01 09:13:48;;;;;;;11.97;5.40;;;;;;;17.36;77.67;100299.75;5068407;28;20038;-73
2021/08/01 09:16:15;;;;;;;11.38;4.57;;;;;;;17.79;76.43;100301.69;5051089;28;20351;-72
2021/08/01 09:18:41;;;;;;;7.28;3.90;;;;;;;19.00;70.29;100315.63;5054121;28;20032;-72
2021/08/01 09:21:06;;;;;;;6.95;4.72;;;;;;;19.39;70.61;100312.38;5055238;28;20024;-72
2021/08/01 09:23:35;;;;;;;9.33;3.60;;;;;;;20.47;67.50;100314.13;5055347;28;20055;-73
2021/08/01 09:26:04;;;;;;;7.88;5.03;;;;;;;19.09;70.37;100298.03;5072407;28;20037;-73
2021/08/01 09:28:30;;;;;;;7.35;4.35;;;;;;;18.84;72.01;100301.66;5071572;28;20445;-73
2021/08/01 09:30:59;;;;;;;6.97;3.67;;;;;;;18.98;72.86;100303.16;5055258;28;20037;-72
2021/08/01 09:33:35;;;;;;;6.95;3.75;;;;;;;18.65;72.02;100300.03;5071906;28;20373;-72
2021/08/01 09:36:27;;;;;;;;;;;;;;;18.03;73.71;100298.19;5072579;28;20028;-72
2021/08/01 09:38:53;;;;;;;8.88;4.03;;;;;;;18.84;71.72;100296.25;5054066;28;19927;-72
2021/08/01 09:41:24;;;;;;;10.85;4.78;;;;;;;18.80;72.29;100295.09;5071840;28;20607;-72
2021/08/01 09:43:59;;;;;;;8.55;3.63;;;;;;;18.71;71.77;100296.41;5071793;28;20046;-72
2021/08/01 09:46:39;;;;;;;9.63;4.88;;;;;;;19.08;72.90;100301.78;5054571;28;20389;-72
2021/08/01 09:49:34;;;;;;;9.57;4.70;;;;;;;18.78;72.94;100302.59;5072602;28;20063;-72
2021/08/01 09:52:02;;;;;;;20.63;17.60;;;;;;;19.77;69.45;100300.34;5067208;28;20059;-72
2021/08/01 09:54:48;;;;;;;11.32;9.13;;;;;;;21.40;64.11;100294.00;5072406;28;20040;-72
2021/08/01 09:57:21;;;;;;;16.70;5.85;;;;;;;19.90;67.74;100301.16;5054330;28;20342;-72
2021/08/01 09:59:48;;;;;;;13.02;4.43;;;;;;;19.31;71.19;100303.75;5072397;28;20028;-73
2021/08/01 10:02:14;;;;;;;7.53;4.05;;;;;;;19.17;71.08;100297.69;5072192;28;20116;-72
2021/08/01 10:04:42;;;;;;;10.38;4.30;;;;;;;19.92;68.52;100302.56;5054670;28;20123;-72
2021/08/01 10:07:15;;;;;;;10.98;4.53;;;;;;;20.38;67.92;100300.09;5070539;28;20036;-72
2021/08/01 10:09:42;;;;;;;10.90;5.68;;;;;;;20.29;67.18;100301.50;5072334;28;20514;-72
2021/08/01 10:12:09;;;;;;;7.13;4.03;;;;;;;20.95;67.03;100299.38;5070761;28;20066;-72
2021/08/01 10:14:36;;;;;;;9.02;4.55;;;;;;;20.20;68.08;100295.63;5071824;28;20485;-73
2021/08/01 10:17:02;;;;;;;7.47;4.40;;;;;;;20.69;69.26;100290.72;5071740;28;20032;-73
2021/08/01 10:19:28;;;;;;;12.90;5.03;;;;;;;20.92;67.57;100295.25;5071692;28;20040;-72
2021/08/01 10:21:57;;;;;;;8.05;4.20;;;;;;;20.57;67.95;100298.09;5071961;28;20055;-73
2021/08/01 10:24:38;;;;;;;92.22;71.38;;;;;;;19.55;71.33;100296.50;5071493;28;20041;-73
2021/08/01 10:27:08;;;;;;;129.27;96.68;;;;;;;18.83;73.92;100301.91;5069893;28;20644;-72
2021/08/01 10:29:53;;;;;;;249.43;183.73;;;;;;;18.59;78.09;100295.50;5070701;28;20040;-72
2021/08/01 10:32:24;;;;;;;47.55;32.17;;;;;;;18.63;78.90;100305.63;5070848;28;20377;-72
2021/08/01 10:35:07;;;;;;;37.47;24.35;;;;;;;18.20;79.97;100311.13;5071325;28;20036;-73
2021/08/01 10:37:44;;;;;;;83.07;55.58;;;;;;;17.40;82.43;100309.06;5071201;28;20051;-73
2021/08/01 10:40:23;;;;;;;17.50;9.55;;;;;;;17.32;82.58;100312.00;5070573;28;20029;-73
2021/08/01 10:42:54;;;;;;;14.07;8.43;;;;;;;17.31;85.26;100319.28;5070489;28;20047;-73
2021/08/01 10:45:20;;;;;;;12.43;4.20;;;;;;;16.99;84.55;100321.13;5070414;28;20074;-73
2021/08/01 10:47:48;;;;;;;7.70;3.92;;;;;;;16.69;83.91;100321.63;5071368;28;20020;-74
2021/08/01 10:50:22;;;;;;;6.43;3.10;;;;;;;17.06;85.61;100325.41;5071331;28;20036;-74
2021/08/01 10:52:47;;;;;;;7.82;3.30;;;;;;;16.76;86.22;100330.50;5053811;28;20525;-74
2021/08/01 10:55:21;;;;;;;12.53;4.40;;;;;;;16.73;88.06;100330.13;5070176;28;20111;-74
2021/08/01 10:58:14;;;;;;;8.05;3.35;;;;;;;16.56;89.64;100327.06;5071109;28;20496;-74
2021/08/01 11:00:54;;;;;;;12.82;3.67;;;;;;;16.91;90.27;100330.28;5053460;28;20050;-75
2021/08/01 11:03:20;;;;;;;9.52;3.70;;;;;;;16.80;88.80;100339.03;5070105;28;20033;-75
2021/08/01 11:05:46;;;;;;;8.38;3.03;;;;;;;16.97;87.18;100328.59;5070577;28;20034;-75
2021/08/01 11:08:11;;;;;;;5.53;3.70;;;;;;;17.05;88.03;100333.75;5053341;28;20044;-74
2021/08/01 11:10:38;;;;;;;9.47;3.40;;;;;;;16.81;86.93;100333.44;5053401;28;20032;-75
2021/08/01 11:13:25;;;;;;;4.10;3.30;;;;;;;16.83;85.37;100320.56;5053540;28;20440;-75
2021/08/01 11:15:51;;;;;;;7.95;3.50;;;;;;;16.74;87.76;100326.38;5069629;28;20044;-75
2021/08/01 11:18:30;;;;;;;;;;;;;;;17.05;88.44;100322.97;5070499;28;20451;-75
2021/08/01 11:20:56;;;;;;;6.88;3.05;;;;;;;17.19;85.64;100321.03;5069709;28;19931;-76
2021/08/01 11:23:44;;;;;;;3.58;2.45;;;;;;;17.65;82.46;100322.56;5070634;28;20044;-74
2021/08/01 11:26:11;;;;;;;6.80;2.95;;;;;;;17.85;81.96;100325.16;5069018;28;20032;-75
2021/08/01 11:28:37;;;;;;;5.38;2.70;;;;;;;18.13;83.18;100320.09;5053052;28;20374;-75